createdAt,value
2022-08-20T00:01:49.505Z,101290.09
2022-08-20T00:04:18.911Z,101291.16
2022-08-20T00:06:46.754Z,101290.44
2022-08-20T00:09:17.031Z,101288.66
2022-08-20T00:11:46.757Z,101290.34
2022-08-20T00:14:14.731Z,101283.00
2022-08-20T00:16:42.718Z,101285.13
2022-08-20T00:19:10.781Z,101286.09
2022-08-20T00:21:38.848Z,101287.03
2022-08-20T00:24:07.298Z,101295.28
2022-08-20T00:26:35.261Z,101283.84
2022-08-20T00:29:06.130Z,101289.28
2022-08-20T00:31:34.035Z,101282.84
2022-08-20T00:34:01.758Z,101285.66
2022-08-20T00:36:30.089Z,101282.78
2022-08-20T00:39:00.773Z,101283.59
2022-08-20T00:41:29.380Z,101281.59
2022-08-20T00:44:10.747Z,101281.81
2022-08-20T00:46:39.302Z,101284.19
2022-08-20T00:49:09.655Z,101288.84
2022-08-20T00:51:41.867Z,101296.03
2022-08-20T00:54:30.743Z,101295.88
2022-08-20T00:57:03.550Z,101293.31
2022-08-20T00:59:51.066Z,101291.72
2022-08-20T01:02:22.646Z,101282.94
2022-08-20T01:05:03.089Z,101284.03
2022-08-20T01:07:34.875Z,101281.31
2022-08-20T01:10:07.352Z,101280.53
2022-08-20T01:12:35.286Z,101272.53
2022-08-20T01:15:07.655Z,101287.00
2022-08-20T01:17:37.950Z,101283.41
2022-08-20T01:20:09.528Z,101284.34
2022-08-20T01:23:01.469Z,101280.94
2022-08-20T01:25:34.582Z,101289.13
2022-08-20T01:28:04.888Z,101295.56
2022-08-20T01:30:36.258Z,101288.47
2022-08-20T01:33:04.829Z,101300.28
2022-08-20T01:35:37.228Z,101292.28
2022-08-20T01:38:05.648Z,101296.88
2022-08-20T01:40:53.245Z,101294.31
2022-08-20T01:43:24.229Z,101294.47
2022-08-20T01:45:52.906Z,101300.84
2022-08-20T01:48:22.248Z,101300.03
2022-08-20T01:50:58.166Z,101308.34
2022-08-20T01:53:33.532Z,101309.28
2022-08-20T01:56:02.996Z,101310.09
2022-08-20T01:58:33.695Z,101317.38
2022-08-20T02:01:01.989Z,101312.00
2022-08-20T02:03:34.818Z,101317.44
2022-08-20T02:06:06.436Z,101319.34
2022-08-20T02:08:34.373Z,101320.16
2022-08-20T02:11:02.385Z,101316.53
2022-08-20T02:13:30.381Z,101316.63
2022-08-20T02:15:59.905Z,101321.16
2022-08-20T02:18:27.928Z,101322.91
2022-08-20T02:20:55.916Z,101318.34
2022-08-20T02:23:24.637Z,101318.44
2022-08-20T02:25:52.629Z,101311.19
2022-08-20T02:28:21.718Z,101314.75
2022-08-20T02:30:53.244Z,101320.09
2022-08-20T02:33:24.232Z,101320.16
2022-08-20T02:35:56.496Z,101319.25
2022-08-20T02:38:24.758Z,101320.16
2022-08-20T02:40:52.739Z,101311.09
2022-08-20T02:43:21.664Z,101311.06
2022-08-20T02:45:49.957Z,101311.09
2022-08-20T02:48:21.232Z,101305.63
2022-08-20T02:50:55.207Z,101309.22
2022-08-20T02:53:23.560Z,101307.44
2022-08-20T02:55:51.948Z,101305.56
2022-08-20T02:58:21.221Z,101309.16
2022-08-20T03:00:49.825Z,101301.81
2022-08-20T03:03:22.427Z,101302.63
2022-08-20T03:05:54.640Z,101309.91
2022-08-20T03:08:22.862Z,101300.84
2022-08-20T03:10:52.523Z,101297.25
2022-08-20T03:13:21.812Z,101302.63
2022-08-20T03:15:55.272Z,101297.97
2022-08-20T03:18:28.401Z,101298.88
2022-08-20T03:21:01.523Z,101299.81
2022-08-20T03:23:30.099Z,101293.59
2022-08-20T03:25:58.248Z,101304.47
2022-08-20T03:28:26.166Z,101295.41
2022-08-20T03:30:56.435Z,101300.69
2022-08-20T03:33:24.582Z,101298.06
2022-08-20T03:35:52.531Z,101298.28
2022-08-20T03:38:33.171Z,101299.13
2022-08-20T03:41:02.004Z,101298.13
2022-08-20T03:43:30.528Z,101294.59
2022-08-20T03:45:58.395Z,101292.25
2022-08-20T03:48:26.346Z,101285.88
2022-08-20T03:50:55.048Z,101293.16
2022-08-20T03:53:24.209Z,101288.59
2022-08-20T03:55:59.255Z,101283.03
2022-08-20T03:58:35.440Z,101285.75
2022-08-20T04:01:06.062Z,101292.16
2022-08-20T04:03:34.127Z,101287.47
2022-08-20T04:06:02.186Z,101291.06
2022-08-20T04:08:31.456Z,101290.25
2022-08-20T04:11:00.525Z,101288.47
2022-08-20T04:13:30.498Z,101293.84
2022-08-20T04:15:59.155Z,101294.78
2022-08-20T04:18:27.999Z,101290.53
2022-08-20T04:20:56.054Z,101300.56
2022-08-20T04:23:24.027Z,101303.22
2022-08-20T04:25:56.470Z,101304.97
2022-08-20T04:28:27.208Z,101305.78
2022-08-20T04:30:55.964Z,101310.34
2022-08-20T04:33:33.903Z,101316.53
2022-08-20T04:36:05.794Z,101319.25
2022-08-20T04:38:50.226Z,101313.06
2022-08-20T04:41:22.461Z,101326.66
2022-08-20T04:43:53.169Z,101332.22
2022-08-20T04:46:22.024Z,101334.09
2022-08-20T04:48:50.569Z,101330.53
2022-08-20T04:51:19.522Z,101336.72
2022-08-20T04:53:53.751Z,101342.97
2022-08-20T04:56:26.005Z,101342.00
2022-08-20T04:58:55.521Z,101342.97
2022-08-20T05:01:24.202Z,101351.19
2022-08-20T05:03:54.791Z,101350.38
2022-08-20T05:06:24.687Z,101345.03
2022-08-20T05:08:53.421Z,101347.84
2022-08-20T05:11:35.430Z,101347.78
2022-08-20T05:14:05.920Z,101352.97
2022-08-20T05:16:38.830Z,101346.50
2022-08-20T05:19:09.074Z,101342.81
2022-08-20T05:21:37.326Z,101345.53
2022-08-20T05:24:05.849Z,101360.94
2022-08-20T05:26:35.250Z,101355.69
2022-08-20T05:29:04.998Z,101358.25
2022-08-20T05:31:36.504Z,101360.88
2022-08-20T05:34:11.022Z,101356.22
2022-08-20T05:36:41.189Z,101351.63
2022-08-20T05:39:10.312Z,101357.06
2022-08-20T05:41:40.289Z,101358.00
2022-08-20T05:44:10.940Z,101356.19
2022-08-20T05:46:40.508Z,101355.28
2022-08-20T05:49:08.721Z,101357.94
2022-08-20T05:51:37.508Z,101358.75
2022-08-20T05:54:06.126Z,101363.22
2022-08-20T05:56:34.123Z,101370.34
2022-08-20T05:59:05.445Z,101377.50
2022-08-20T06:01:35.351Z,101386.53
2022-08-20T06:04:21.491Z,101386.44
2022-08-20T06:06:51.140Z,101380.06
2022-08-20T06:09:28.126Z,101381.56
2022-08-20T06:12:00.518Z,101380.53
2022-08-20T06:14:30.354Z,101373.13
2022-08-20T06:17:04.079Z,101365.78
2022-08-20T06:19:33.241Z,101366.50
2022-08-20T06:22:01.324Z,101365.78
2022-08-20T06:24:29.427Z,101366.06
2022-08-20T06:26:58.119Z,101367.69
2022-08-20T06:29:26.251Z,101378.22
2022-08-20T06:31:56.069Z,101376.66
2022-08-20T06:34:28.307Z,101374.56
2022-08-20T06:36:59.633Z,101379.25
2022-08-20T06:39:31.167Z,101381.31
2022-08-20T06:41:59.687Z,101377.66
2022-08-20T06:44:28.460Z,101378.66
2022-08-20T06:47:01.648Z,101378.59
2022-08-20T06:49:29.587Z,101379.53
2022-08-20T06:52:03.318Z,101383.28
2022-08-20T06:54:32.416Z,101384.97
2022-08-20T06:57:00.125Z,101386.06
2022-08-20T06:59:27.973Z,101388.06
2022-08-20T07:01:57.354Z,101390.97
2022-08-20T07:04:25.845Z,101389.22
2022-08-20T07:06:53.989Z,101396.41
2022-08-20T07:09:22.611Z,101392.59
2022-08-20T07:11:50.643Z,101397.41
2022-08-20T07:14:18.922Z,101396.84
2022-08-20T07:16:47.333Z,101396.25
2022-08-20T07:19:16.543Z,101402.41
2022-08-20T07:21:44.479Z,101390.41
2022-08-20T07:24:12.694Z,101394.53
2022-08-20T07:26:40.415Z,101398.78
2022-08-20T07:29:08.110Z,101399.41
2022-08-20T07:31:53.584Z,101407.03
2022-08-20T07:34:22.709Z,101407.91
2022-08-20T07:36:50.837Z,101404.00
2022-08-20T07:39:18.607Z,101395.66
2022-08-20T07:42:02.889Z,101403.47
2022-08-20T07:44:30.783Z,101403.97
2022-08-20T07:46:59.473Z,101402.63
2022-08-20T07:49:28.589Z,101410.66
2022-08-20T07:51:56.314Z,101415.03
2022-08-20T07:54:24.255Z,101415.19
2022-08-20T07:56:52.779Z,101408.88
2022-08-20T07:59:20.589Z,101414.00
2022-08-20T08:01:48.416Z,101412.03
2022-08-20T08:04:16.355Z,101413.84
2022-08-20T08:06:45.903Z,101416.09
2022-08-20T08:09:15.196Z,101426.56
2022-08-20T08:11:47.791Z,101428.78
2022-08-20T08:14:18.935Z,101430.03
2022-08-20T08:16:46.982Z,101424.44
2022-08-20T08:19:19.604Z,101423.19
2022-08-20T08:21:49.489Z,101423.09
2022-08-20T08:24:21.654Z,101424.63
2022-08-20T08:26:51.944Z,101428.97
2022-08-20T08:29:19.726Z,101432.66
2022-08-20T08:31:47.461Z,101436.78
2022-08-20T08:34:15.240Z,101434.97
2022-08-20T08:36:44.101Z,101441.03
2022-08-20T08:39:13.189Z,101443.22
2022-08-20T08:41:48.430Z,101436.06
2022-08-20T08:44:22.945Z,101442.13
2022-08-20T08:46:53.766Z,101440.56
2022-08-20T08:49:26.321Z,101437.19
2022-08-20T08:52:10.053Z,101444.66
2022-08-20T08:54:42.065Z,101439.81
2022-08-20T08:57:11.186Z,101441.13
2022-08-20T08:59:58.232Z,101441.66
2022-08-20T09:02:29.213Z,101443.97
2022-08-20T09:04:59.395Z,101446.84
2022-08-20T09:07:31.313Z,101449.06
2022-08-20T09:10:00.717Z,101458.53
2022-08-20T09:12:28.735Z,101444.38
2022-08-20T09:14:57.327Z,101455.38
2022-08-20T09:17:25.196Z,101446.06
2022-08-20T09:19:53.140Z,101454.47
2022-08-20T09:22:23.243Z,101470.06
2022-08-20T09:24:51.462Z,101460.66
2022-08-20T09:27:21.182Z,101463.47
2022-08-20T09:29:49.402Z,101468.69
2022-08-20T09:32:19.438Z,101472.78
2022-08-20T09:34:51.851Z,101460.50
2022-08-20T09:37:20.351Z,101476.25
2022-08-20T09:39:48.905Z,101473.91
2022-08-20T09:42:19.655Z,101470.97
2022-08-20T09:44:49.158Z,101468.06
2022-08-20T09:47:17.384Z,101459.06
2022-08-20T09:49:45.800Z,101467.06
2022-08-20T09:52:21.082Z,101470.88
2022-08-20T09:54:49.160Z,101474.66
2022-08-20T09:57:19.097Z,101470.72
2022-08-20T09:59:54.365Z,101473.13
2022-08-20T10:02:22.179Z,101467.88
2022-08-20T10:04:49.903Z,101474.66
2022-08-20T10:07:17.710Z,101476.09
2022-08-20T10:09:45.518Z,101473.81
2022-08-20T10:12:13.405Z,101461.72
2022-08-20T10:14:41.276Z,101464.81
2022-08-20T10:17:10.606Z,101467.72
2022-08-20T10:19:38.434Z,101462.69
2022-08-20T10:22:06.475Z,101463.56
2022-08-20T10:24:34.811Z,101471.66
2022-08-20T10:27:02.944Z,101468.63
2022-08-20T10:29:31.793Z,101470.91
2022-08-20T10:32:12.350Z,101472.66
2022-08-20T10:34:40.752Z,101476.63
2022-08-20T10:37:08.652Z,101479.34
2022-08-20T10:39:36.757Z,101481.38
2022-08-20T10:42:04.903Z,101485.69
2022-08-20T10:44:32.673Z,101471.75
2022-08-20T10:47:13.564Z,101469.56
2022-08-20T10:49:42.784Z,101468.50
2022-08-20T10:52:10.501Z,101475.44
2022-08-20T10:54:41.351Z,101481.44
2022-08-20T10:57:10.399Z,101474.31
2022-08-20T10:59:42.476Z,101472.91
2022-08-20T11:02:10.109Z,101476.03
2022-08-20T11:04:37.872Z,101471.59
2022-08-20T11:07:15.254Z,101480.25
2022-08-20T11:09:43.170Z,101484.19
2022-08-20T11:12:11.599Z,101480.97
2022-08-20T11:14:39.496Z,101476.69
2022-08-20T11:17:08.381Z,101474.56
2022-08-20T11:19:40.321Z,101468.13
2022-08-20T11:22:08.255Z,101465.50
2022-08-20T11:24:37.787Z,101479.44
2022-08-20T11:27:08.653Z,101469.84
2022-08-20T11:29:37.138Z,101469.19
2022-08-20T11:32:06.782Z,101475.16
2022-08-20T11:34:34.901Z,101472.13
2022-08-20T11:37:02.681Z,101468.31
2022-08-20T11:39:30.482Z,101473.97
2022-08-20T11:41:59.615Z,101477.06
2022-08-20T11:44:27.407Z,101469.44
2022-08-20T11:46:55.175Z,101472.41
2022-08-20T11:49:22.942Z,101466.69
2022-08-20T11:51:50.715Z,101469.06
2022-08-20T11:54:18.604Z,101475.78
2022-08-20T11:56:47.218Z,101473.81
2022-08-20T11:59:17.488Z,101472.69
2022-08-20T12:01:52.582Z,101480.28
2022-08-20T12:04:33.431Z,101475.25
2022-08-20T12:07:09.286Z,101485.81
2022-08-20T12:09:37.069Z,101489.75
2022-08-20T12:12:10.348Z,101490.66
2022-08-20T12:14:43.433Z,101491.66
2022-08-20T12:17:12.677Z,101483.56
2022-08-20T12:19:41.092Z,101481.31
2022-08-20T12:22:24.548Z,101493.25
2022-08-20T12:24:53.275Z,101493.25
2022-08-20T12:27:25.653Z,101483.84
2022-08-20T12:29:56.902Z,101478.44
2022-08-20T12:32:28.016Z,101483.66
2022-08-20T12:34:56.729Z,101480.81
2022-08-20T12:37:26.239Z,101485.44
2022-08-20T12:39:56.203Z,101483.66
2022-08-20T12:42:24.702Z,101481.84
2022-08-20T12:44:53.837Z,101480.38
2022-08-20T12:47:24.919Z,101467.41
2022-08-20T12:49:54.857Z,101472.44
2022-08-20T12:52:23.850Z,101471.06
2022-08-20T12:54:52.036Z,101461.75
2022-08-20T12:57:28.627Z,101463.50
2022-08-20T12:59:59.542Z,101466.06
2022-08-20T13:02:27.842Z,101466.16
2022-08-20T13:04:55.733Z,101461.28
2022-08-20T13:07:26.588Z,101463.31
2022-08-20T13:09:55.600Z,101463.41
2022-08-20T13:12:23.337Z,101451.59
2022-08-20T13:14:51.142Z,101462.53
2022-08-20T13:17:24.357Z,101451.09
2022-08-20T13:20:08.606Z,101453.63
2022-08-20T13:22:36.542Z,101455.50
2022-08-20T13:25:04.450Z,101457.53
2022-08-20T13:27:32.264Z,101452.06
2022-08-20T13:30:00.090Z,101444.84
2022-08-20T13:32:29.220Z,101460.47
2022-08-20T13:37:27.253Z,101448.75
2022-08-20T13:39:56.336Z,101443.38
2022-08-20T13:42:24.581Z,101455.38
2022-08-20T13:44:52.359Z,101453.53
2022-08-20T13:47:23.672Z,101436.75
2022-08-20T13:49:58.249Z,101440.94
2022-08-20T13:52:27.036Z,101439.38
2022-08-20T13:54:54.858Z,101444.03
2022-08-20T13:57:24.786Z,101436.69
2022-08-20T13:59:55.050Z,101434.25
2022-08-20T14:02:23.396Z,101443.66
2022-08-20T14:04:51.895Z,101445.09
2022-08-20T14:07:23.231Z,101442.97
2022-08-20T14:09:54.316Z,101444.63
2022-08-20T14:12:23.621Z,101441.78
2022-08-20T14:14:52.400Z,101435.22
2022-08-20T14:17:23.062Z,101440.28
2022-08-20T14:19:52.882Z,101439.25
2022-08-20T14:22:22.140Z,101431.38
2022-08-20T14:24:50.634Z,101439.47
2022-08-20T14:27:20.514Z,101431.44
2022-08-20T14:29:49.856Z,101429.50
2022-08-20T14:32:19.442Z,101435.81
2022-08-20T14:34:48.134Z,101431.22
2022-08-20T14:37:18.770Z,101433.84
2022-08-20T14:39:50.525Z,101428.94
2022-08-20T14:42:18.403Z,101420.72
2022-08-20T14:44:46.220Z,101428.41
2022-08-20T14:47:16.267Z,101432.81
2022-08-20T14:49:45.627Z,101434.50
2022-08-20T14:52:14.864Z,101435.53
2022-08-20T14:54:43.224Z,101428.47
2022-08-20T14:57:13.962Z,101423.94
2022-08-20T14:59:41.901Z,101424.56
2022-08-20T15:02:13.578Z,101424.47
2022-08-20T15:04:41.967Z,101421.41
2022-08-20T15:07:17.275Z,101421.53
2022-08-20T15:09:46.938Z,101415.19
2022-08-20T15:12:16.147Z,101423.53
2022-08-20T15:14:43.914Z,101416.53
2022-08-20T15:17:20.825Z,101422.19
2022-08-20T15:19:49.002Z,101417.19
2022-08-20T15:22:16.925Z,101420.72
2022-08-20T15:24:44.728Z,101422.59
2022-08-20T15:27:17.042Z,101420.56
2022-08-20T15:29:48.402Z,101424.75
2022-08-20T15:32:16.488Z,101421.47
2022-08-20T15:34:44.290Z,101423.13
2022-08-20T15:37:14.665Z,101434.53
2022-08-20T15:39:44.341Z,101427.44
2022-08-20T15:42:13.975Z,101421.00
2022-08-20T15:44:43.010Z,101425.16
2022-08-20T15:47:23.653Z,101422.44
2022-08-20T15:49:54.900Z,101422.34
2022-08-20T15:52:22.777Z,101426.34
2022-08-20T15:54:55.151Z,101417.75
2022-08-20T15:57:38.439Z,101416.28
2022-08-20T16:00:13.160Z,101426.97
2022-08-20T16:03:13.493Z,101428.00
2022-08-20T16:05:49.153Z,101421.84
2022-08-20T16:08:35.620Z,101421.63
2022-08-20T16:11:12.208Z,101422.38
2022-08-20T16:13:42.849Z,101421.25
2022-08-20T16:16:15.278Z,101425.16
2022-08-20T16:18:47.080Z,101431.34
2022-08-20T16:21:18.147Z,101425.59
2022-08-20T16:23:46.528Z,101429.00
2022-08-20T16:26:35.527Z,101426.56
2022-08-20T16:29:11.258Z,101423.09
2022-08-20T16:31:45.925Z,101426.41
2022-08-20T16:34:33.798Z,101420.84
2022-08-20T16:37:07.239Z,101424.84
2022-08-20T16:39:41.939Z,101419.19
2022-08-20T16:42:11.226Z,101421.44
2022-08-20T16:44:41.591Z,101416.34
2022-08-20T16:47:17.143Z,101419.38
2022-08-20T16:49:57.176Z,101426.03
2022-08-20T16:52:25.361Z,101434.94
2022-08-20T16:54:53.168Z,101433.06
2022-08-20T16:57:21.000Z,101433.06
2022-08-20T16:59:59.535Z,101430.63
2022-08-20T17:02:27.635Z,101427.50
2022-08-20T17:04:59.122Z,101423.00
2022-08-20T17:07:33.587Z,101426.13
2022-08-20T17:10:13.136Z,101423.47
2022-08-20T17:12:40.917Z,101435.22
2022-08-20T17:15:09.440Z,101427.88
2022-08-20T17:17:38.339Z,101435.78
2022-08-20T17:20:20.372Z,101437.34
2022-08-20T17:22:50.664Z,101435.47
2022-08-20T17:25:20.991Z,101431.06
2022-08-20T17:27:49.441Z,101440.06
2022-08-20T17:30:23.881Z,101434.22
2022-08-20T17:32:59.062Z,101433.25
2022-08-20T17:35:34.625Z,101441.66
2022-08-20T17:38:04.993Z,101445.34
2022-08-20T17:40:39.925Z,101439.19
2022-08-20T17:43:09.878Z,101446.69
2022-08-20T17:45:42.340Z,101448.06
2022-08-20T17:48:15.664Z,101444.13
2022-08-20T17:50:45.231Z,101443.22
2022-08-20T17:53:23.139Z,101451.81
2022-08-20T17:55:55.621Z,101451.09
2022-08-20T17:58:36.463Z,101457.03
2022-08-20T18:01:08.169Z,101454.41
2022-08-20T18:03:39.222Z,101449.31
2022-08-20T18:06:12.648Z,101448.50
2022-08-20T18:08:49.031Z,101456.00
2022-08-20T18:11:23.367Z,101454.41
2022-08-20T18:14:05.504Z,101456.63
2022-08-20T18:16:44.225Z,101456.09
2022-08-20T18:19:16.131Z,101459.00
2022-08-20T18:22:02.510Z,101467.53
2022-08-20T18:24:39.498Z,101464.34
2022-08-20T18:27:14.810Z,101470.94
2022-08-20T18:29:46.631Z,101473.94
2022-08-20T18:32:31.862Z,101479.56
2022-08-20T18:35:12.703Z,101485.28
2022-08-20T18:37:41.885Z,101482.00
2022-08-20T18:40:19.147Z,101489.50
2022-08-20T18:42:46.922Z,101483.31
2022-08-20T18:45:16.341Z,101483.41
2022-08-20T18:47:46.963Z,101486.31
2022-08-20T18:50:21.554Z,101484.78
2022-08-20T18:53:06.291Z,101488.81
2022-08-20T18:55:41.494Z,101493.47
2022-08-20T18:58:11.799Z,101488.44
2022-08-20T19:00:43.023Z,101494.94
2022-08-20T19:03:18.738Z,101495.09
2022-08-20T19:06:06.293Z,101496.31
2022-08-20T19:08:46.144Z,101494.63
2022-08-20T19:11:57.121Z,101498.00
2022-08-20T19:14:41.853Z,101500.47
2022-08-20T19:17:16.490Z,101499.03
2022-08-20T19:19:45.076Z,101501.91
2022-08-20T19:22:18.784Z,101507.75
2022-08-20T19:24:56.757Z,101497.00
2022-08-20T19:27:25.910Z,101506.97
2022-08-20T19:29:57.004Z,101506.28
2022-08-20T19:32:27.849Z,101508.22
2022-08-20T19:34:57.890Z,101511.13
2022-08-20T19:37:40.126Z,101505.78
2022-08-20T19:40:26.531Z,101508.03
2022-08-20T19:42:58.371Z,101510.09
2022-08-20T19:45:31.955Z,101515.91
2022-08-20T19:48:27.072Z,101514.38
2022-08-20T19:51:02.831Z,101523.56
2022-08-20T19:53:33.139Z,101528.44
2022-08-20T19:56:05.299Z,101530.63
2022-08-20T19:58:33.696Z,101526.25
2022-08-20T20:01:03.888Z,101524.47
2022-08-20T20:03:34.675Z,101530.00
2022-08-20T20:06:15.089Z,101532.78
2022-08-20T20:08:53.335Z,101533.81
2022-08-20T20:11:28.331Z,101535.84
2022-08-20T20:14:01.572Z,101533.38
2022-08-20T20:16:32.771Z,101535.50
2022-08-20T20:19:24.849Z,101537.56
2022-08-20T20:21:53.367Z,101529.47
2022-08-20T20:24:24.865Z,101530.56
2022-08-20T20:26:54.640Z,101537.03
2022-08-20T20:29:26.221Z,101533.50
2022-08-20T20:31:57.372Z,101539.09
2022-08-20T20:34:30.834Z,101534.88
2022-08-20T20:37:06.847Z,101531.44
2022-08-20T20:39:40.341Z,101522.66
2022-08-20T20:42:12.879Z,101526.63
2022-08-20T20:44:45.821Z,101528.63
2022-08-20T20:47:21.836Z,101530.56
2022-08-20T20:49:52.496Z,101523.44
2022-08-20T20:52:24.335Z,101523.56
2022-08-20T20:54:53.262Z,101520.91
2022-08-20T20:57:38.082Z,101522.00
2022-08-20T21:00:09.547Z,101525.81
2022-08-20T21:02:37.603Z,101525.06
2022-08-20T21:05:06.518Z,101521.53
2022-08-20T21:07:34.650Z,101520.84
2022-08-20T21:10:02.739Z,101522.75
2022-08-20T21:12:32.142Z,101520.09
2022-08-20T21:15:00.095Z,101529.38
2022-08-20T21:17:28.169Z,101520.50
2022-08-20T21:19:56.176Z,101519.81
2022-08-20T21:22:24.100Z,101520.88
2022-08-20T21:24:52.138Z,101520.16
2022-08-20T21:27:23.424Z,101514.91
2022-08-20T21:29:53.658Z,101519.63
2022-08-20T21:32:22.057Z,101525.25
2022-08-20T21:34:50.937Z,101523.63
2022-08-20T21:37:19.534Z,101528.41
2022-08-20T21:39:47.572Z,101525.91
2022-08-20T21:42:29.322Z,101529.56
2022-08-20T21:44:59.501Z,101526.16
2022-08-20T21:47:27.829Z,101528.94
2022-08-20T21:49:56.042Z,101520.91
2022-08-20T21:52:24.108Z,101521.94
2022-08-20T21:54:53.338Z,101524.84
2022-08-20T21:57:23.459Z,101528.69
2022-08-20T21:59:52.045Z,101532.41
2022-08-20T22:02:21.889Z,101530.69
2022-08-20T22:04:53.779Z,101529.03
2022-08-20T22:07:22.510Z,101522.84
2022-08-20T22:09:50.506Z,101529.22
2022-08-20T22:12:20.858Z,101526.63
2022-08-20T22:14:49.235Z,101532.22
2022-08-20T22:17:17.241Z,101523.34
2022-08-20T22:19:46.863Z,101529.69
2022-08-20T22:22:17.520Z,101531.59
2022-08-20T22:24:46.864Z,101524.53
2022-08-20T22:27:14.947Z,101527.38
2022-08-20T22:29:43.317Z,101524.81
2022-08-20T22:32:11.364Z,101530.25
2022-08-20T22:34:42.298Z,101525.84
2022-08-20T22:37:12.466Z,101528.66
2022-08-20T22:39:40.518Z,101529.75
2022-08-20T22:42:08.710Z,101530.75
2022-08-20T22:44:36.604Z,101529.91
2022-08-20T22:47:08.362Z,101525.59
2022-08-20T22:49:39.881Z,101533.03
2022-08-20T22:52:10.716Z,101524.19
2022-08-20T22:54:44.530Z,101530.66
2022-08-20T22:57:13.078Z,101530.88
2022-08-20T22:59:52.013Z,101529.16
2022-08-20T23:02:22.693Z,101535.66
2022-08-20T23:04:51.633Z,101522.25
2022-08-20T23:07:20.206Z,101530.50
2022-08-20T23:09:49.710Z,101527.75
2022-08-20T23:12:17.705Z,101533.22
2022-08-20T23:14:45.779Z,101531.56
2022-08-20T23:17:17.974Z,101533.44
2022-08-20T23:19:48.676Z,101525.97
2022-08-20T23:22:17.639Z,101524.97
2022-08-20T23:24:45.812Z,101523.00
2022-08-20T23:27:18.474Z,101525.59
2022-08-20T23:29:46.644Z,101516.44
2022-08-20T23:32:14.871Z,101515.50
2022-08-20T23:34:42.953Z,101513.69
2022-08-20T23:37:11.484Z,101511.78
2022-08-20T23:39:39.526Z,101510.97
2022-08-20T23:42:07.855Z,101507.53
2022-08-20T23:44:37.177Z,101507.59
2022-08-20T23:47:05.341Z,101500.63
2022-08-20T23:49:33.420Z,101508.69
2022-08-20T23:52:01.778Z,101506.16
2022-08-20T23:54:30.706Z,101500.06
2022-08-20T23:56:58.918Z,101499.38
2022-08-20T23:59:27.291Z,101497.69
